Aeroporto :
LOGIN :

Iscrizione | Disclaimer

   EN    FR    IT 

 










Sommario :    VFR   VFR Marginale   IFR   IFR Intensivo   IFR Molto Intensivo
Visibilità : 
Base nubi : 
>= 8 km
>= 3000ft
5 / 8 km
1000 / 3000 ft
1500m / 5 km
500 / 1000 ft
800 / 1500m
200 / 500 ft
< 800m
< 200 ft
Simboli :   Temporali  Nebbia  Neve Forte  Precipitazioni Forti  Vento > 20 kt
SIGMETs :   Varie  Temporali  Ghiacco  Turbolenza  Onda orograficha  Ceneri Vulcaniche






- Altitudine del aeroporto : 20 ft


EBFN - Koksijde

ULTIMO METAR :
  • 092225Z AUTO 33014KT 9999 FEW030/// 06/01 Q1024 BLU

METARs OBSOLETI :
  • 092155Z AUTO 33014KT 9999 SCT030/// SCT049/// 07/01 Q1024 BLU
  • 092125Z AUTO 32015KT 9999 SCT031/// 07/01 Q1023 BLU
  • 092055Z AUTO 33014KT 9999 FEW030/// 06/02 Q1023 BLU
  • 092025Z AUTO 32015KT 9999 SCT031/// 07/02 Q1023 BLU
  • 091955Z AUTO 32014KT 9999 FEW029/// BKN036/// 07/02 Q1022 BLU

TAF TAF EBFN
Valido dal 09 a 19 ore il 10 a 07 ore UTC


091541Z 0919/1007 32025G35KT 9999 FEW022
BECMG 0923/1001 28015KT
BECMG 1002/1004 21008KT



MetMap, La meteo Aeronautica in un colpo d'occhio ! - Copyright ORBIFLY Dicembre 2007 - Disclaimer

ORBIFLY MET'MAP TEAM :

Programmazione e sviluppo : Alexandra Zaïnal
Concezione : Baudouin d'Aumeries
Aiuto per la programmazione : Marc-Olivier Méhu
Supporto tecnico e logistico : Manuel Goepfert
Aiuto per la traduzione : Arnaldo La Scala

Contatto : metmap@orbifly.com




FONTI E CREDITI :

   NOAA